Jerry Torok — WDI4934 — position and weather

sailwx.info

Track history (hours):
 
Tides and Currents Weather Stations Pressure Air Temp Water Temp Dewpoint Dewpoint Depression Visibility Wind Speed Wind Dir Waves Ship Positions

Jerry Torok

Owner: American Commercial Lines LLC, Jeffersonville, IN. More information available from US FCC via Universal Licensing System and Coast Guard Vessel Documentation Center.

Last reported at 2018-Jun-23 21:02 UTC. Time now 2018-Jun-25 14:17 UTC.
Position N 29°33' W 090°24'.

Length 22 m.

Type: Tug. MMSI: 367703560.

Date/timePositionNaut miles runAvg speedWind from/ knotsBaromVisibWave heightAir tempDewpointWater temp
2018-Jun-23 21:02N 29°33' W 090°24'0 5.1
2018-Jun-23 21:00N 29°33' W 090°24'1 0.8
2018-Jun-23 20:24N 29°33' W 090°24'0 0.0
2018-Jun-23 19:57N 29°33' W 090°24'0 0.8
2018-Jun-23 19:24N 29°33' W 090°25'0 0.1
2018-Jun-23 18:55N 29°33' W 090°25'3 2.6
2018-Jun-23 17:57N 29°33' W 090°28'3 6.3
2018-Jun-23 17:28N 29°34' W 090°31'3 5.9
2018-Jun-23 17:00N 29°34' W 090°34'3 5.3
2018-Jun-23 16:30N 29°35' W 090°37'1 1.6
2018-Jun-23 16:00N 29°35' W 090°38'3 5.3
2018-Jun-23 15:30N 29°36' W 090°41'2 3.2
2018-Jun-23 15:00N 29°36' W 090°43'2 4.3
2018-Jun-23 14:30N 29°34' W 090°44'2 4.4
2018-Jun-23 14:00N 29°32' W 090°46'3 6.2
2018-Jun-23 13:27N 29°32' W 090°50'3 6.1
2018-Jun-23 12:59N 29°32' W 090°53'3 6.5
2018-Jun-23 12:29N 29°34' W 090°56'54 4.1
2018-Jun-22 23:05N 29°51' W 091°56'1 6.1
2018-Jun-22 22:58N 29°51' W 091°57'3 5.6
2018-Jun-22 22:30N 29°50' W 091°59'3 5.8
2018-Jun-22 22:00N 29°49' W 092°03'3 5.7
2018-Jun-22 21:30N 29°48' W 092°06'3 5.5
2018-Jun-22 21:00N 29°47' W 092°09'2 5.0
2018-Jun-22 20:30N 29°47' W 092°12'1 2.0
2018-Jun-22 20:00N 29°47' W 092°13'1 2.0
2018-Jun-22 19:30N 29°48' W 092°14'1 2.8
2018-Jun-22 19:00N 29°48' W 092°15'3 5.4
2018-Jun-22 18:30N 29°50' W 092°18'3 5.2
2018-Jun-22 18:00N 29°51' W 092°21'2 5.0
2018-Jun-22 17:30N 29°52' W 092°23'3 5.4
2018-Jun-22 17:00N 29°53' W 092°26'19 5.9
2018-Jun-22 13:45N 29°58' W 092°47'13 4.7
2018-Jun-22 10:59N 29°56' W 093°02'2 4.6
2018-Jun-22 10:30N 29°56' W 093°04'2 4.1
2018-Jun-22 10:00N 29°56' W 093°07'2 4.9
2018-Jun-22 09:30N 29°56' W 093°09'3 5.1
2018-Jun-22 09:00N 29°58' W 093°11'2 4.5
2018-Jun-22 08:30N 29°60' W 093°13'2 4.2
2018-Jun-22 08:00N 30°02' W 093°14'2 4.1
2018-Jun-22 07:30N 30°03' W 093°16'2 4.0
2018-Jun-22 07:00N 30°05' W 093°17'1 2.3
2018-Jun-22 06:30N 30°06' W 093°18'0 0.8
2018-Jun-22 06:00N 30°06' W 093°18'0 0.0
2018-Jun-22 05:30N 30°06' W 093°18'0 0.0
2018-Jun-22 05:00N 30°06' W 093°18'0 0.0
2018-Jun-22 04:30N 30°06' W 093°18'0 0.0
2018-Jun-22 04:00N 30°06' W 093°18'0 0.0
2018-Jun-22 03:30N 30°06' W 093°18'0 0.0
2018-Jun-22 03:00N 30°06' W 093°18'0 0.0
2018-Jun-22 02:30N 30°06' W 093°18'0 0.1
2018-Jun-22 02:00N 30°06' W 093°18'0 0.0
2018-Jun-22 01:30N 30°06' W 093°18'1 1.6
2018-Jun-22 01:00N 30°06' W 093°19'0 0.0
2018-Jun-22 00:30N 30°06' W 093°19'0 0.0
2018-Jun-22 00:00N 30°06' W 093°19'0 0.0
2018-Jun-21 23:30N 30°06' W 093°19'0 0.1
2018-Jun-21 23:00N 30°06' W 093°19'0 0.0
2018-Jun-21 22:30N 30°06' W 093°19'0 0.0
2018-Jun-21 22:00N 30°06' W 093°19'0 0.0
2018-Jun-21 21:30N 30°06' W 093°19'0 0.0
2018-Jun-21 21:00N 30°06' W 093°19'0 0.0
2018-Jun-21 20:30N 30°06' W 093°19'0 0.0
2018-Jun-21 20:00N 30°06' W 093°19'0 0.0
2018-Jun-21 19:30N 30°06' W 093°19'0 0.0
2018-Jun-21 19:00N 30°06' W 093°19'0 0.0
2018-Jun-21 18:29N 30°06' W 093°19'0 0.0
2018-Jun-21 18:00N 30°06' W 093°19'0 0.0
2018-Jun-21 17:30N 30°06' W 093°19'0 0.0
2018-Jun-21 17:00N 30°06' W 093°19'0 0.1
2018-Jun-21 16:29N 30°06' W 093°19'0 0.0
2018-Jun-21 16:00N 30°06' W 093°19'0 0.1
2018-Jun-21 15:30N 30°06' W 093°19'0 0.1
2018-Jun-21 15:00N 30°06' W 093°19'0 0.0
2018-Jun-21 14:29N 30°06' W 093°19'0 0.0
2018-Jun-21 14:00N 30°06' W 093°19'0 0.0
2018-Jun-21 13:30N 30°06' W 093°19'0 0.1
2018-Jun-21 13:00N 30°06' W 093°19'1 2.5
2018-Jun-21 12:30N 30°05' W 093°20'2 4.4
2018-Jun-21 12:00N 30°04' W 093°22'2 3.4
2018-Jun-21 11:30N 30°04' W 093°24'0 0.0
2018-Jun-21 11:00N 30°04' W 093°24'3 5.4
2018-Jun-21 10:30N 30°04' W 093°27'3 6.0
2018-Jun-21 10:00N 30°04' W 093°30'2 4.9
2018-Jun-21 09:30N 30°04' W 093°33'3 5.8
2018-Jun-21 08:59N 30°04' W 093°37'3 5.6
2018-Jun-21 08:30N 30°04' W 093°40'3 5.8
2018-Jun-21 08:00N 30°03' W 093°43'3 6.0
2018-Jun-21 07:30N 30°01' W 093°45'3 6.0
2018-Jun-21 07:00N 29°59' W 093°48'3 6.0
2018-Jun-21 06:30N 29°58' W 093°51'3 6.8
2018-Jun-21 06:00N 29°55' W 093°53'3 6.5
2018-Jun-21 05:30N 29°52' W 093°56'3 5.6
2018-Jun-21 05:00N 29°50' W 093°57'3 5.9
2018-Jun-21 04:30N 29°48' W 094°00'3 5.7
2018-Jun-21 04:00N 29°46' W 094°02'3 5.8
2018-Jun-21 03:30N 29°44' W 094°05'1 2.0
2018-Jun-21 03:00N 29°44' W 094°06'1 2.1
2018-Jun-21 02:30N 29°43' W 094°07'3 5.7
2018-Jun-21 02:00N 29°41' W 094°10'3 5.5
2018-Jun-21 01:30N 29°41' W 094°13'3 5.4
2018-Jun-21 01:00N 29°39' W 094°15'3 5.3
2018-Jun-21 00:29N 29°38' W 094°18'2 4.9
2018-Jun-21 00:00N 29°37' W 094°21'1 2.9
2018-Jun-20 23:30N 29°36' W 094°22'2 4.7
2018-Jun-20 23:00N 29°36' W 094°25'2 3.5
2018-Jun-20 22:29N 29°34' W 094°25'2 4.9
2018-Jun-20 21:59N 29°33' W 094°28'19 5.4
2018-Jun-20 18:27N 29°23' W 094°47'2 4.1
2018-Jun-20 18:00N 29°23' W 094°49'10 6.5
2018-Jun-20 16:25N 29°32' W 094°54'3 7.9
2018-Jun-20 15:59N 29°35' W 094°56'4 7.6
2018-Jun-20 15:30N 29°38' W 094°58'4 7.2
2018-Jun-20 15:00N 29°42' W 094°59'7 1.3
2018-Jun-20 09:38N 29°47' W 095°05'0 0.0
2018-Jun-20 09:24N 29°47' W 095°05'2 0.3
2018-Jun-20 01:57N 29°45' W 095°06'0 0.0
2018-Jun-20 01:27N 29°45' W 095°06'5 0.5
2018-Jun-19 14:37N 29°42' W 095°01'1 7.4
2018-Jun-19 14:27N 29°42' W 094°60'3 7.3
2018-Jun-19 14:00N 29°39' W 094°58'4 7.4
2018-Jun-19 13:29N 29°35' W 094°56'9 7.5
2018-Jun-19 12:20N 29°28' W 094°51'2 7.2
2018-Jun-19 12:00N 29°26' W 094°50'3 7.0
2018-Jun-19 11:30N 29°23' W 094°48'2 4.1
2018-Jun-19 10:59N 29°23' W 094°46'1 2.1
2018-Jun-19 10:30N 29°24' W 094°45'0 0.0
2018-Jun-19 09:45N 29°24' W 094°45'0 0.0
2018-Jun-19 09:30N 29°24' W 094°45'0 0.0
2018-Jun-19 08:58N 29°24' W 094°45'0 0.0
2018-Jun-19 08:30N 29°24' W 094°45'1 1.7
2018-Jun-19 07:52N 29°25' W 094°44'15 4.3
2018-Jun-19 04:24N 29°32' W 094°29'3 5.2
2018-Jun-19 03:52N 29°34' W 094°27'1 3.9
2018-Jun-19 03:29N 29°34' W 094°25'2 3.6
2018-Jun-19 03:00N 29°36' W 094°24'2 5.0
2018-Jun-19 02:30N 29°37' W 094°21'3 5.9
2018-Jun-19 02:00N 29°38' W 094°18'3 5.9
2018-Jun-19 01:30N 29°39' W 094°15'3 5.4
2018-Jun-19 01:00N 29°41' W 094°13'3 5.3
2018-Jun-19 00:30N 29°41' W 094°10'3 5.5
2018-Jun-19 00:00N 29°43' W 094°07'3 6.2
2018-Jun-18 23:30N 29°45' W 094°04'3 6.5
2018-Jun-18 23:00N 29°47' W 094°02'3 5.7
2018-Jun-18 22:31N 29°49' W 093°59'1 1.5
2018-Jun-18 22:01N 29°50' W 093°59'0 0.2
2018-Jun-18 21:30N 29°50' W 093°59'0 0.1
2018-Jun-18 21:00N 29°50' W 093°59'0 0.0
2018-Jun-18 20:31N 29°50' W 093°59'0 0.0
2018-Jun-18 20:00N 29°50' W 093°59'0 0.0
2018-Jun-18 19:31N 29°50' W 093°59'0 0.0
2018-Jun-18 19:01N 29°50' W 093°59'0 0.0
2018-Jun-18 18:30N 29°50' W 093°59'0 0.0
2018-Jun-18 18:00N 29°50' W 093°59'0 0.0
2018-Jun-18 17:31N 29°50' W 093°59'0 0.0
2018-Jun-18 17:00N 29°50' W 093°59'0 0.0
2018-Jun-18 16:31N 29°50' W 093°59'0 0.0
2018-Jun-18 16:00N 29°50' W 093°59'0 0.0
2018-Jun-18 15:31N 29°50' W 093°59'0 0.0
2018-Jun-18 15:01N 29°50' W 093°59'0 0.0
2018-Jun-18 14:30N 29°50' W 093°59'0 0.0
2018-Jun-18 14:00N 29°50' W 093°59'0 0.0
2018-Jun-18 13:30N 29°50' W 093°59'0 0.0
2018-Jun-18 13:00N 29°50' W 093°59'0 0.0
2018-Jun-18 12:30N 29°50' W 093°59'0 0.0
2018-Jun-18 12:00N 29°50' W 093°59'0 0.0
2018-Jun-18 11:30N 29°50' W 093°59'0 0.0
2018-Jun-18 11:00N 29°50' W 093°59'0 0.0
2018-Jun-18 10:30N 29°50' W 093°59'0 0.0
2018-Jun-18 10:00N 29°50' W 093°59'0 0.0
2018-Jun-18 09:30N 29°50' W 093°59'0 0.0
2018-Jun-18 09:00N 29°50' W 093°59'0 0.0
2018-Jun-18 08:30N 29°50' W 093°59'0 0.0
2018-Jun-18 08:00N 29°50' W 093°59'0 0.0
2018-Jun-18 07:30N 29°50' W 093°59'0 0.0
2018-Jun-18 07:00N 29°50' W 093°59'0 0.0
2018-Jun-18 06:30N 29°50' W 093°59'0 0.0
2018-Jun-18 06:00N 29°50' W 093°59'0 0.0
2018-Jun-18 05:30N 29°50' W 093°59'0 0.0
2018-Jun-18 05:01N 29°50' W 093°59'0 0.0
2018-Jun-18 04:30N 29°50' W 093°59'0 0.0
2018-Jun-18 04:00N 29°50' W 093°59'0 0.0
2018-Jun-18 03:31N 29°50' W 093°59'0 0.0
2018-Jun-18 03:00N 29°50' W 093°59'0 0.0
2018-Jun-18 02:29N 29°50' W 093°59'0 0.0
2018-Jun-18 02:00N 29°50' W 093°59'0 0.0
2018-Jun-18 01:30N 29°50' W 093°59'0 0.0
2018-Jun-18 01:01N 29°50' W 093°59'0 0.0
2018-Jun-18 00:30N 29°50' W 093°59'1 1.6
2018-Jun-18 00:01N 29°49' W 093°59'0 0.7
2018-Jun-17 23:30N 29°49' W 093°59'0 0.2
2018-Jun-17 23:00N 29°49' W 093°59'0 0.0
2018-Jun-17 22:31N 29°49' W 093°59'2 3.4
2018-Jun-17 22:00N 29°50' W 093°57'3 5.1
2018-Jun-17 21:31N 29°52' W 093°56'3 5.5
2018-Jun-17 21:01N 29°55' W 093°54'3 5.7
2018-Jun-17 20:30N 29°57' W 093°52'2 4.5
2018-Jun-17 20:01N 29°59' W 093°50'3 5.3
2018-Jun-17 19:30N 29°60' W 093°47'2 3.5
2018-Jun-17 19:01N 30°01' W 093°46'2 4.7
2018-Jun-17 18:31N 30°03' W 093°44'2 4.8
2018-Jun-17 18:00N 30°04' W 093°42'3 4.9
2018-Jun-17 17:29N 30°04' W 093°39'2 3.7
2018-Jun-17 17:00N 30°04' W 093°36'2 4.6
2018-Jun-17 16:30N 30°04' W 093°34'3 5.2
2018-Jun-17 16:00N 30°04' W 093°31'3 5.2
2018-Jun-17 15:30N 30°04' W 093°28'2 4.3
2018-Jun-17 15:01N 30°04' W 093°25'2 4.6
2018-Jun-17 14:30N 30°04' W 093°23'2 4.1
2018-Jun-17 14:01N 30°04' W 093°20'1 1.7
2018-Jun-17 13:31N 30°05' W 093°20'2 3.2
2018-Jun-17 13:01N 30°06' W 093°18'1 2.4
2018-Jun-17 12:31N 30°05' W 093°17'1 2.7
2018-Jun-17 12:01N 30°04' W 093°16'0 0.7
2018-Jun-17 11:31N 30°04' W 093°16'0 0.0
2018-Jun-17 11:00N 30°04' W 093°16'0 0.1
2018-Jun-17 10:31N 30°04' W 093°16'0 0.0
2018-Jun-17 10:00N 30°04' W 093°16'0 0.0
2018-Jun-17 09:30N 30°04' W 093°16'0 0.0
2018-Jun-17 09:00N 30°04' W 093°16'0 0.0
2018-Jun-17 08:31N 30°04' W 093°16'0 0.0
2018-Jun-17 08:01N 30°04' W 093°16'0 0.0
2018-Jun-17 07:31N 30°04' W 093°16'0 0.1
2018-Jun-17 07:01N 30°04' W 093°16'0 0.0
2018-Jun-17 06:31N 30°04' W 093°16'0 0.4
2018-Jun-17 06:01N 30°04' W 093°16'1 1.4
2018-Jun-17 05:30N 30°03' W 093°16'1 2.7
2018-Jun-17 05:01N 30°02' W 093°15'0 0.6
2018-Jun-17 04:31N 30°02' W 093°15'0 0.0
2018-Jun-17 04:01N 30°02' W 093°15'0 0.0
2018-Jun-17 03:31N 30°02' W 093°15'0 0.0
2018-Jun-17 03:00N 30°02' W 093°15'0 0.0
2018-Jun-17 02:31N 30°02' W 093°15'0 0.0
2018-Jun-17 01:59N 30°02' W 093°15'0 0.0
2018-Jun-17 01:30N 30°02' W 093°15'0 0.0
2018-Jun-17 01:00N 30°02' W 093°15'0 0.0
2018-Jun-17 00:30N 30°02' W 093°15'0 0.0
2018-Jun-17 00:01N 30°02' W 093°15'0 0.0
2018-Jun-16 23:31N 30°02' W 093°15'0 0.0
2018-Jun-16 23:00N 30°02' W 093°15'0 0.3
2018-Jun-16 22:31N 30°02' W 093°14'1 2.4
2018-Jun-16 22:00N 30°01' W 093°14'1 2.7
2018-Jun-16 21:31N 29°59' W 093°13'2 3.6
2018-Jun-16 21:00N 29°58' W 093°11'2 4.1
2018-Jun-16 20:31N 29°57' W 093°10'2 3.6
2018-Jun-16 20:00N 29°56' W 093°08'1 2.1
2018-Jun-16 19:30N 29°56' W 093°07'0 0.2
2018-Jun-16 18:59N 29°56' W 093°07'0 0.0
2018-Jun-16 18:31N 29°56' W 093°07'0 0.0
2018-Jun-16 17:57N 29°56' W 093°07'0 0.3
2018-Jun-16 17:31N 29°56' W 093°06'2 3.2
2018-Jun-16 16:59N 29°56' W 093°05'2 4.4
2018-Jun-16 16:29N 29°56' W 093°02'28 4.3
2018-Jun-16 09:49N 29°54' W 092°29'1 4.2
2018-Jun-16 09:30N 29°54' W 092°28'2 4.2
2018-Jun-16 08:59N 29°53' W 092°25'2 4.0
2018-Jun-16 08:22N 29°52' W 092°23'1 4.0
2018-Jun-16 08:00N 29°51' W 092°22'2 3.9
2018-Jun-16 07:31N 29°50' W 092°20'2 3.8
2018-Jun-16 07:00N 29°50' W 092°18'2 4.0
2018-Jun-16 06:30N 29°48' W 092°16'2 4.3
2018-Jun-16 06:00N 29°48' W 092°14'1 2.4
2018-Jun-16 05:30N 29°47' W 092°12'1 2.1
2018-Jun-16 05:00N 29°47' W 092°11'0 0.0
2018-Jun-16 04:26N 29°47' W 092°11'0 0.2
2018-Jun-16 04:00N 29°47' W 092°11'0 0.7
2018-Jun-16 03:30N 29°47' W 092°11'1 1.3
2018-Jun-16 03:00N 29°47' W 092°10'2 3.8
2018-Jun-16 02:30N 29°47' W 092°08'2 4.8
2018-Jun-16 02:00N 29°48' W 092°05'2 4.7
2018-Jun-16 01:30N 29°49' W 092°03'2 4.7
2018-Jun-16 01:00N 29°50' W 092°00'2 4.2
2018-Jun-16 00:30N 29°50' W 091°58'2 4.8
2018-Jun-16 00:00N 29°51' W 091°55'3 4.9
2018-Jun-15 23:26N 29°51' W 091°52'2 4.7
2018-Jun-15 23:00N 29°50' W 091°50'47 3.6
2018-Jun-15 09:50N 29°36' W 090°58'2 5.0
2018-Jun-15 09:25N 29°34' W 090°57'2 5.1
2018-Jun-15 09:00N 29°33' W 090°55'3 5.0
2018-Jun-15 08:30N 29°32' W 090°52'2 4.8
2018-Jun-15 08:00N 29°32' W 090°49'2 4.7
2018-Jun-15 07:30N 29°32' W 090°47'2 3.9
2018-Jun-15 07:00N 29°33' W 090°45'2 3.0
2018-Jun-15 06:30N 29°34' W 090°43'1 2.9
2018-Jun-15 06:00N 29°35' W 090°43'1 2.8
2018-Jun-15 05:30N 29°37' W 090°42'1 2.5
2018-Jun-15 05:00N 29°36' W 090°41'2 3.9
2018-Jun-15 04:30N 29°36' W 090°39'2 4.5
2018-Jun-15 04:00N 29°35' W 090°37'2 4.1
2018-Jun-15 03:30N 29°34' W 090°34'2 4.5
2018-Jun-15 03:00N 29°34' W 090°32'2 4.8
2018-Jun-15 02:30N 29°34' W 090°29'3 4.5
2018-Jun-15 01:55N 29°33' W 090°26'2 4.4
2018-Jun-15 01:29N 29°33' W 090°24'  
Track history (hours):
 
Tides and Currents Weather Stations Pressure Air Temp Water Temp Dewpoint Dewpoint Depression Visibility Wind Speed Wind Dir Waves Ship Positions

Jerry Torok

Owner: American Commercial Lines LLC, Jeffersonville, IN. More information available from US FCC via Universal Licensing System and Coast Guard Vessel Documentation Center.

Last reported at 2018-Jun-23 21:02 UTC. Time now 2018-Jun-25 14:17 UTC.
Position N 29°33' W 090°24'.

Length 22 m.

Type: Tug. MMSI: 367703560.

Date/timePositionNaut miles runAvg speedWind from/ knotsBaromVisibWave heightAir tempDewpointWater temp
2018-Jun-23 21:02N 29°33' W 090°24'0 5.1
2018-Jun-23 21:00N 29°33' W 090°24'1 0.8
2018-Jun-23 20:24N 29°33' W 090°24'0 0.0
2018-Jun-23 19:57N 29°33' W 090°24'0 0.8
2018-Jun-23 19:24N 29°33' W 090°25'0 0.1
2018-Jun-23 18:55N 29°33' W 090°25'3 2.6
2018-Jun-23 17:57N 29°33' W 090°28'3 6.3
2018-Jun-23 17:28N 29°34' W 090°31'3 5.9
2018-Jun-23 17:00N 29°34' W 090°34'3 5.3
2018-Jun-23 16:30N 29°35' W 090°37'1 1.6
2018-Jun-23 16:00N 29°35' W 090°38'3 5.3
2018-Jun-23 15:30N 29°36' W 090°41'2 3.2
2018-Jun-23 15:00N 29°36' W 090°43'2 4.3
2018-Jun-23 14:30N 29°34' W 090°44'2 4.4
2018-Jun-23 14:00N 29°32' W 090°46'3 6.2
2018-Jun-23 13:27N 29°32' W 090°50'3 6.1
2018-Jun-23 12:59N 29°32' W 090°53'3 6.5
2018-Jun-23 12:29N 29°34' W 090°56'54 4.1
2018-Jun-22 23:05N 29°51' W 091°56'1 6.1
2018-Jun-22 22:58N 29°51' W 091°57'3 5.6
2018-Jun-22 22:30N 29°50' W 091°59'3 5.8
2018-Jun-22 22:00N 29°49' W 092°03'3 5.7
2018-Jun-22 21:30N 29°48' W 092°06'3 5.5
2018-Jun-22 21:00N 29°47' W 092°09'2 5.0
2018-Jun-22 20:30N 29°47' W 092°12'1 2.0
2018-Jun-22 20:00N 29°47' W 092°13'1 2.0
2018-Jun-22 19:30N 29°48' W 092°14'1 2.8
2018-Jun-22 19:00N 29°48' W 092°15'3 5.4
2018-Jun-22 18:30N 29°50' W 092°18'3 5.2
2018-Jun-22 18:00N 29°51' W 092°21'2 5.0
2018-Jun-22 17:30N 29°52' W 092°23'3 5.4
2018-Jun-22 17:00N 29°53' W 092°26'19 5.9
2018-Jun-22 13:45N 29°58' W 092°47'13 4.7
2018-Jun-22 10:59N 29°56' W 093°02'2 4.6
2018-Jun-22 10:30N 29°56' W 093°04'2 4.1
2018-Jun-22 10:00N 29°56' W 093°07'2 4.9
2018-Jun-22 09:30N 29°56' W 093°09'3 5.1
2018-Jun-22 09:00N 29°58' W 093°11'2 4.5
2018-Jun-22 08:30N 29°60' W 093°13'2 4.2
2018-Jun-22 08:00N 30°02' W 093°14'2 4.1
2018-Jun-22 07:30N 30°03' W 093°16'2 4.0
2018-Jun-22 07:00N 30°05' W 093°17'1 2.3
2018-Jun-22 06:30N 30°06' W 093°18'0 0.8
2018-Jun-22 06:00N 30°06' W 093°18'0 0.0
2018-Jun-22 05:30N 30°06' W 093°18'0 0.0
2018-Jun-22 05:00N 30°06' W 093°18'0 0.0
2018-Jun-22 04:30N 30°06' W 093°18'0 0.0
2018-Jun-22 04:00N 30°06' W 093°18'0 0.0
2018-Jun-22 03:30N 30°06' W 093°18'0 0.0
2018-Jun-22 03:00N 30°06' W 093°18'0 0.0
2018-Jun-22 02:30N 30°06' W 093°18'0 0.1
2018-Jun-22 02:00N 30°06' W 093°18'0 0.0
2018-Jun-22 01:30N 30°06' W 093°18'1 1.6
2018-Jun-22 01:00N 30°06' W 093°19'0 0.0
2018-Jun-22 00:30N 30°06' W 093°19'0 0.0
2018-Jun-22 00:00N 30°06' W 093°19'0 0.0
2018-Jun-21 23:30N 30°06' W 093°19'0 0.1
2018-Jun-21 23:00N 30°06' W 093°19'0 0.0
2018-Jun-21 22:30N 30°06' W 093°19'0 0.0
2018-Jun-21 22:00N 30°06' W 093°19'0 0.0
2018-Jun-21 21:30N 30°06' W 093°19'0 0.0
2018-Jun-21 21:00N 30°06' W 093°19'0 0.0
2018-Jun-21 20:30N 30°06' W 093°19'0 0.0
2018-Jun-21 20:00N 30°06' W 093°19'0 0.0
2018-Jun-21 19:30N 30°06' W 093°19'0 0.0
2018-Jun-21 19:00N 30°06' W 093°19'0 0.0
2018-Jun-21 18:29N 30°06' W 093°19'0 0.0
2018-Jun-21 18:00N 30°06' W 093°19'0 0.0
2018-Jun-21 17:30N 30°06' W 093°19'0 0.0
2018-Jun-21 17:00N 30°06' W 093°19'0 0.1
2018-Jun-21 16:29N 30°06' W 093°19'0 0.0
2018-Jun-21 16:00N 30°06' W 093°19'0 0.1
2018-Jun-21 15:30N 30°06' W 093°19'0 0.1
2018-Jun-21 15:00N 30°06' W 093°19'0 0.0
2018-Jun-21 14:29N 30°06' W 093°19'0 0.0
2018-Jun-21 14:00N 30°06' W 093°19'0 0.0
2018-Jun-21 13:30N 30°06' W 093°19'0 0.1
2018-Jun-21 13:00N 30°06' W 093°19'1 2.5
2018-Jun-21 12:30N 30°05' W 093°20'2 4.4
2018-Jun-21 12:00N 30°04' W 093°22'2 3.4
2018-Jun-21 11:30N 30°04' W 093°24'0 0.0
2018-Jun-21 11:00N 30°04' W 093°24'3 5.4
2018-Jun-21 10:30N 30°04' W 093°27'3 6.0
2018-Jun-21 10:00N 30°04' W 093°30'2 4.9
2018-Jun-21 09:30N 30°04' W 093°33'3 5.8
2018-Jun-21 08:59N 30°04' W 093°37'3 5.6
2018-Jun-21 08:30N 30°04' W 093°40'3 5.8
2018-Jun-21 08:00N 30°03' W 093°43'3 6.0
2018-Jun-21 07:30N 30°01' W 093°45'3 6.0
2018-Jun-21 07:00N 29°59' W 093°48'3 6.0
2018-Jun-21 06:30N 29°58' W 093°51'3 6.8
2018-Jun-21 06:00N 29°55' W 093°53'3 6.5
2018-Jun-21 05:30N 29°52' W 093°56'3 5.6
2018-Jun-21 05:00N 29°50' W 093°57'3 5.9
2018-Jun-21 04:30N 29°48' W 094°00'3 5.7
2018-Jun-21 04:00N 29°46' W 094°02'3 5.8
2018-Jun-21 03:30N 29°44' W 094°05'1 2.0
2018-Jun-21 03:00N 29°44' W 094°06'1 2.1
2018-Jun-21 02:30N 29°43' W 094°07'3 5.7
2018-Jun-21 02:00N 29°41' W 094°10'3 5.5
2018-Jun-21 01:30N 29°41' W 094°13'3 5.4
2018-Jun-21 01:00N 29°39' W 094°15'3 5.3
2018-Jun-21 00:29N 29°38' W 094°18'2 4.9
2018-Jun-21 00:00N 29°37' W 094°21'1 2.9
2018-Jun-20 23:30N 29°36' W 094°22'2 4.7
2018-Jun-20 23:00N 29°36' W 094°25'2 3.5
2018-Jun-20 22:29N 29°34' W 094°25'2 4.9
2018-Jun-20 21:59N 29°33' W 094°28'19 5.4
2018-Jun-20 18:27N 29°23' W 094°47'2 4.1
2018-Jun-20 18:00N 29°23' W 094°49'10 6.5
2018-Jun-20 16:25N 29°32' W 094°54'3 7.9
2018-Jun-20 15:59N 29°35' W 094°56'4 7.6
2018-Jun-20 15:30N 29°38' W 094°58'4 7.2
2018-Jun-20 15:00N 29°42' W 094°59'7 1.3
2018-Jun-20 09:38N 29°47' W 095°05'0 0.0
2018-Jun-20 09:24N 29°47' W 095°05'2 0.3
2018-Jun-20 01:57N 29°45' W 095°06'0 0.0
2018-Jun-20 01:27N 29°45' W 095°06'5 0.5
2018-Jun-19 14:37N 29°42' W 095°01'1 7.4
2018-Jun-19 14:27N 29°42' W 094°60'3 7.3
2018-Jun-19 14:00N 29°39' W 094°58'4 7.4
2018-Jun-19 13:29N 29°35' W 094°56'9 7.5
2018-Jun-19 12:20N 29°28' W 094°51'2 7.2
2018-Jun-19 12:00N 29°26' W 094°50'3 7.0
2018-Jun-19 11:30N 29°23' W 094°48'2 4.1
2018-Jun-19 10:59N 29°23' W 094°46'1 2.1
2018-Jun-19 10:30N 29°24' W 094°45'0 0.0
2018-Jun-19 09:45N 29°24' W 094°45'0 0.0
2018-Jun-19 09:30N 29°24' W 094°45'0 0.0
2018-Jun-19 08:58N 29°24' W 094°45'0 0.0
2018-Jun-19 08:30N 29°24' W 094°45'1 1.7
2018-Jun-19 07:52N 29°25' W 094°44'15 4.3
2018-Jun-19 04:24N 29°32' W 094°29'3 5.2
2018-Jun-19 03:52N 29°34' W 094°27'1 3.9
2018-Jun-19 03:29N 29°34' W 094°25'2 3.6
2018-Jun-19 03:00N 29°36' W 094°24'2 5.0
2018-Jun-19 02:30N 29°37' W 094°21'3 5.9
2018-Jun-19 02:00N 29°38' W 094°18'3 5.9
2018-Jun-19 01:30N 29°39' W 094°15'3 5.4
2018-Jun-19 01:00N 29°41' W 094°13'3 5.3
2018-Jun-19 00:30N 29°41' W 094°10'3 5.5
2018-Jun-19 00:00N 29°43' W 094°07'3 6.2
2018-Jun-18 23:30N 29°45' W 094°04'3 6.5
2018-Jun-18 23:00N 29°47' W 094°02'3 5.7
2018-Jun-18 22:31N 29°49' W 093°59'1 1.5
2018-Jun-18 22:01N 29°50' W 093°59'0 0.2
2018-Jun-18 21:30N 29°50' W 093°59'0 0.1
2018-Jun-18 21:00N 29°50' W 093°59'0 0.0
2018-Jun-18 20:31N 29°50' W 093°59'0 0.0
2018-Jun-18 20:00N 29°50' W 093°59'0 0.0
2018-Jun-18 19:31N 29°50' W 093°59'0 0.0
2018-Jun-18 19:01N 29°50' W 093°59'0 0.0
2018-Jun-18 18:30N 29°50' W 093°59'0 0.0
2018-Jun-18 18:00N 29°50' W 093°59'0 0.0
2018-Jun-18 17:31N 29°50' W 093°59'0 0.0
2018-Jun-18 17:00N 29°50' W 093°59'0 0.0
2018-Jun-18 16:31N 29°50' W 093°59'0 0.0
2018-Jun-18 16:00N 29°50' W 093°59'0 0.0
2018-Jun-18 15:31N 29°50' W 093°59'0 0.0
2018-Jun-18 15:01N 29°50' W 093°59'0 0.0
2018-Jun-18 14:30N 29°50' W 093°59'0 0.0
2018-Jun-18 14:00N 29°50' W 093°59'0 0.0
2018-Jun-18 13:30N 29°50' W 093°59'0 0.0
2018-Jun-18 13:00N 29°50' W 093°59'0 0.0
2018-Jun-18 12:30N 29°50' W 093°59'0 0.0
2018-Jun-18 12:00N 29°50' W 093°59'0 0.0
2018-Jun-18 11:30N 29°50' W 093°59'0 0.0
2018-Jun-18 11:00N 29°50' W 093°59'0 0.0
2018-Jun-18 10:30N 29°50' W 093°59'0 0.0
2018-Jun-18 10:00N 29°50' W 093°59'0 0.0
2018-Jun-18 09:30N 29°50' W 093°59'0 0.0
2018-Jun-18 09:00N 29°50' W 093°59'0 0.0
2018-Jun-18 08:30N 29°50' W 093°59'0 0.0
2018-Jun-18 08:00N 29°50' W 093°59'0 0.0
2018-Jun-18 07:30N 29°50' W 093°59'0 0.0
2018-Jun-18 07:00N 29°50' W 093°59'0 0.0
2018-Jun-18 06:30N 29°50' W 093°59'0 0.0
2018-Jun-18 06:00N 29°50' W 093°59'0 0.0
2018-Jun-18 05:30N 29°50' W 093°59'0 0.0
2018-Jun-18 05:01N 29°50' W 093°59'0 0.0
2018-Jun-18 04:30N 29°50' W 093°59'0 0.0
2018-Jun-18 04:00N 29°50' W 093°59'0 0.0
2018-Jun-18 03:31N 29°50' W 093°59'0 0.0
2018-Jun-18 03:00N 29°50' W 093°59'0 0.0
2018-Jun-18 02:29N 29°50' W 093°59'0 0.0
2018-Jun-18 02:00N 29°50' W 093°59'0 0.0
2018-Jun-18 01:30N 29°50' W 093°59'0 0.0
2018-Jun-18 01:01N 29°50' W 093°59'0 0.0
2018-Jun-18 00:30N 29°50' W 093°59'1 1.6
2018-Jun-18 00:01N 29°49' W 093°59'0 0.7
2018-Jun-17 23:30N 29°49' W 093°59'0 0.2
2018-Jun-17 23:00N 29°49' W 093°59'0 0.0
2018-Jun-17 22:31N 29°49' W 093°59'2 3.4
2018-Jun-17 22:00N 29°50' W 093°57'3 5.1
2018-Jun-17 21:31N 29°52' W 093°56'3 5.5
2018-Jun-17 21:01N 29°55' W 093°54'3 5.7
2018-Jun-17 20:30N 29°57' W 093°52'2 4.5
2018-Jun-17 20:01N 29°59' W 093°50'3 5.3
2018-Jun-17 19:30N 29°60' W 093°47'2 3.5
2018-Jun-17 19:01N 30°01' W 093°46'2 4.7
2018-Jun-17 18:31N 30°03' W 093°44'2 4.8
2018-Jun-17 18:00N 30°04' W 093°42'3 4.9
2018-Jun-17 17:29N 30°04' W 093°39'2 3.7
2018-Jun-17 17:00N 30°04' W 093°36'2 4.6
2018-Jun-17 16:30N 30°04' W 093°34'3 5.2
2018-Jun-17 16:00N 30°04' W 093°31'3 5.2
2018-Jun-17 15:30N 30°04' W 093°28'2 4.3
2018-Jun-17 15:01N 30°04' W 093°25'2 4.6
2018-Jun-17 14:30N 30°04' W 093°23'2 4.1
2018-Jun-17 14:01N 30°04' W 093°20'1 1.7
2018-Jun-17 13:31N 30°05' W 093°20'2 3.2
2018-Jun-17 13:01N 30°06' W 093°18'1 2.4
2018-Jun-17 12:31N 30°05' W 093°17'1 2.7
2018-Jun-17 12:01N 30°04' W 093°16'0 0.7
2018-Jun-17 11:31N 30°04' W 093°16'0 0.0
2018-Jun-17 11:00N 30°04' W 093°16'0 0.1
2018-Jun-17 10:31N 30°04' W 093°16'0 0.0
2018-Jun-17 10:00N 30°04' W 093°16'0 0.0
2018-Jun-17 09:30N 30°04' W 093°16'0 0.0
2018-Jun-17 09:00N 30°04' W 093°16'0 0.0
2018-Jun-17 08:31N 30°04' W 093°16'0 0.0
2018-Jun-17 08:01N 30°04' W 093°16'0 0.0
2018-Jun-17 07:31N 30°04' W 093°16'0 0.1
2018-Jun-17 07:01N 30°04' W 093°16'0 0.0
2018-Jun-17 06:31N 30°04' W 093°16'0 0.4
2018-Jun-17 06:01N 30°04' W 093°16'1 1.4
2018-Jun-17 05:30N 30°03' W 093°16'1 2.7
2018-Jun-17 05:01N 30°02' W 093°15'0 0.6
2018-Jun-17 04:31N 30°02' W 093°15'0 0.0
2018-Jun-17 04:01N 30°02' W 093°15'0 0.0
2018-Jun-17 03:31N 30°02' W 093°15'0 0.0
2018-Jun-17 03:00N 30°02' W 093°15'0 0.0
2018-Jun-17 02:31N 30°02' W 093°15'0 0.0
2018-Jun-17 01:59N 30°02' W 093°15'0 0.0
2018-Jun-17 01:30N 30°02' W 093°15'0 0.0
2018-Jun-17 01:00N 30°02' W 093°15'0 0.0
2018-Jun-17 00:30N 30°02' W 093°15'0 0.0
2018-Jun-17 00:01N 30°02' W 093°15'0 0.0
2018-Jun-16 23:31N 30°02' W 093°15'0 0.0
2018-Jun-16 23:00N 30°02' W 093°15'0 0.3
2018-Jun-16 22:31N 30°02' W 093°14'1 2.4
2018-Jun-16 22:00N 30°01' W 093°14'1 2.7
2018-Jun-16 21:31N 29°59' W 093°13'2 3.6
2018-Jun-16 21:00N 29°58' W 093°11'2 4.1
2018-Jun-16 20:31N 29°57' W 093°10'2 3.6
2018-Jun-16 20:00N 29°56' W 093°08'1 2.1
2018-Jun-16 19:30N 29°56' W 093°07'0 0.2
2018-Jun-16 18:59N 29°56' W 093°07'0 0.0
2018-Jun-16 18:31N 29°56' W 093°07'0 0.0
2018-Jun-16 17:57N 29°56' W 093°07'0 0.3
2018-Jun-16 17:31N 29°56' W 093°06'2 3.2
2018-Jun-16 16:59N 29°56' W 093°05'2 4.4
2018-Jun-16 16:29N 29°56' W 093°02'28 4.3
2018-Jun-16 09:49N 29°54' W 092°29'1 4.2
2018-Jun-16 09:30N 29°54' W 092°28'2 4.2
2018-Jun-16 08:59N 29°53' W 092°25'2 4.0
2018-Jun-16 08:22N 29°52' W 092°23'1 4.0
2018-Jun-16 08:00N 29°51' W 092°22'2 3.9
2018-Jun-16 07:31N 29°50' W 092°20'2 3.8
2018-Jun-16 07:00N 29°50' W 092°18'2 4.0
2018-Jun-16 06:30N 29°48' W 092°16'2 4.3
2018-Jun-16 06:00N 29°48' W 092°14'1 2.4
2018-Jun-16 05:30N 29°47' W 092°12'1 2.1
2018-Jun-16 05:00N 29°47' W 092°11'0 0.0
2018-Jun-16 04:26N 29°47' W 092°11'0 0.2
2018-Jun-16 04:00N 29°47' W 092°11'0 0.7
2018-Jun-16 03:30N 29°47' W 092°11'1 1.3
2018-Jun-16 03:00N 29°47' W 092°10'2 3.8
2018-Jun-16 02:30N 29°47' W 092°08'2 4.8
2018-Jun-16 02:00N 29°48' W 092°05'2 4.7
2018-Jun-16 01:30N 29°49' W 092°03'2 4.7
2018-Jun-16 01:00N 29°50' W 092°00'2 4.2
2018-Jun-16 00:30N 29°50' W 091°58'2 4.8
2018-Jun-16 00:00N 29°51' W 091°55'3 4.9
2018-Jun-15 23:26N 29°51' W 091°52'2 4.7
2018-Jun-15 23:00N 29°50' W 091°50'47 3.6
2018-Jun-15 09:50N 29°36' W 090°58'2 5.0
2018-Jun-15 09:25N 29°34' W 090°57'2 5.1
2018-Jun-15 09:00N 29°33' W 090°55'3 5.0
2018-Jun-15 08:30N 29°32' W 090°52'2 4.8
2018-Jun-15 08:00N 29°32' W 090°49'2 4.7
2018-Jun-15 07:30N 29°32' W 090°47'2 3.9
2018-Jun-15 07:00N 29°33' W 090°45'2 3.0
2018-Jun-15 06:30N 29°34' W 090°43'1 2.9
2018-Jun-15 06:00N 29°35' W 090°43'1 2.8
2018-Jun-15 05:30N 29°37' W 090°42'1 2.5
2018-Jun-15 05:00N 29°36' W 090°41'2 3.9
2018-Jun-15 04:30N 29°36' W 090°39'2 4.5
2018-Jun-15 04:00N 29°35' W 090°37'2 4.1
2018-Jun-15 03:30N 29°34' W 090°34'2 4.5
2018-Jun-15 03:00N 29°34' W 090°32'2 4.8
2018-Jun-15 02:30N 29°34' W 090°29'3 4.5
2018-Jun-15 01:55N 29°33' W 090°26'2 4.4
2018-Jun-15 01:29N 29°33' W 090°24'  

Dump ship's entire track history